createdAt,value
2023-10-08T00:01:15.461Z,1.17
2023-10-08T00:03:50.528Z,0.60
2023-10-08T00:06:21.213Z,0.50
2023-10-08T00:08:49.942Z,0.32
2023-10-08T00:11:18.774Z,0.47
2023-10-08T00:13:49.791Z,0.28
2023-10-08T00:16:19.718Z,0.20
2023-10-08T00:18:52.110Z,0.20
2023-10-08T00:21:27.713Z,0.20
2023-10-08T00:23:59.529Z,0.20
2023-10-08T00:26:31.264Z,0.10
2023-10-08T00:29:01.741Z,0.20
2023-10-08T00:31:33.560Z,0.30
2023-10-08T00:34:06.102Z,0.20
2023-10-08T00:36:36.873Z,0.10
2023-10-08T00:39:10.306Z,0.20
2023-10-08T00:41:39.502Z,0.10
2023-10-08T00:44:10.624Z,0.10
2023-10-08T00:46:43.904Z,0.10
2023-10-08T00:49:25.522Z,0.10
2023-10-08T00:52:04.847Z,0.20
2023-10-08T00:54:35.748Z,0.10
2023-10-08T00:57:07.229Z,0.10
2023-10-08T00:59:43.666Z,0.10
2023-10-08T01:02:15.998Z,0.30
2023-10-08T01:04:46.230Z,0.20
2023-10-08T01:07:18.218Z,0.20
2023-10-08T01:09:51.506Z,0.10
2023-10-08T01:12:25.095Z,0.08
2023-10-08T01:14:55.181Z,0.10
2023-10-08T01:17:28.050Z,0.10
2023-10-08T01:20:09.513Z,0.10
2023-10-08T01:22:40.427Z,0.22
2023-10-08T01:25:11.622Z,0.10
2023-10-08T01:27:40.969Z,0.10
2023-10-08T01:30:19.344Z,0.10
2023-10-08T01:32:47.953Z,0.13
2023-10-08T01:35:24.310Z,0.17
2023-10-08T01:37:57.790Z,0.15
2023-10-08T01:40:26.226Z,0.20
2023-10-08T01:42:54.689Z,0.10
2023-10-08T01:45:26.100Z,0.10
2023-10-08T01:47:56.442Z,0.10
2023-10-08T01:50:26.292Z,0.20
2023-10-08T01:52:56.155Z,0.10
2023-10-08T01:55:24.900Z,0.10
2023-10-08T01:57:53.775Z,0.17
2023-10-08T02:00:22.993Z,0.10
2023-10-08T02:02:52.918Z,0.10
2023-10-08T02:05:22.436Z,0.10
2023-10-08T02:07:52.290Z,0.10
2023-10-08T02:10:23.585Z,0.30
2023-10-08T02:12:52.019Z,0.10
2023-10-08T02:15:20.504Z,0.20
2023-10-08T02:17:50.469Z,0.10
2023-10-08T02:20:20.217Z,0.10
2023-10-08T02:22:50.266Z,0.10
2023-10-08T02:25:19.600Z,0.20
2023-10-08T02:27:49.761Z,0.20
2023-10-08T02:30:19.017Z,0.20
2023-10-08T02:32:47.731Z,0.15
2023-10-08T02:35:16.313Z,0.30
2023-10-08T02:37:46.964Z,0.40
2023-10-08T02:40:20.837Z,0.20
2023-10-08T02:42:50.796Z,0.10
2023-10-08T02:45:19.506Z,0.20
2023-10-08T02:47:48.229Z,0.20
2023-10-08T02:50:18.789Z,0.10
2023-10-08T02:52:47.360Z,0.30
2023-10-08T02:55:28.776Z,0.20
2023-10-08T02:57:59.333Z,0.20
2023-10-08T03:00:31.122Z,0.15
2023-10-08T03:03:04.029Z,0.30
2023-10-08T03:05:37.509Z,0.20
2023-10-08T03:08:11.902Z,0.20
2023-10-08T03:10:42.554Z,0.20
2023-10-08T03:13:15.599Z,0.20
2023-10-08T03:15:59.193Z,0.47
2023-10-08T03:18:36.789Z,0.22
2023-10-08T03:21:06.908Z,0.30
2023-10-08T03:23:36.118Z,0.30
2023-10-08T03:26:12.328Z,0.40
2023-10-08T03:28:43.183Z,0.30
2023-10-08T03:31:19.084Z,0.40
2023-10-08T03:33:50.563Z,0.30
2023-10-08T03:36:23.735Z,0.30
2023-10-08T03:38:55.371Z,0.30
2023-10-08T03:41:30.909Z,0.30
2023-10-08T03:44:06.724Z,0.28
2023-10-08T03:46:40.667Z,0.22
2023-10-08T03:49:16.285Z,0.22
2023-10-08T03:51:44.897Z,0.30
2023-10-08T03:54:21.951Z,0.20
2023-10-08T03:56:52.358Z,0.28
2023-10-08T03:59:31.444Z,0.35
2023-10-08T04:02:11.106Z,0.47
2023-10-08T04:04:52.435Z,0.20
2023-10-08T04:07:30.687Z,0.20
2023-10-08T04:10:28.228Z,0.30
2023-10-08T04:12:56.786Z,0.28
2023-10-08T04:15:26.659Z,0.40
2023-10-08T04:17:55.342Z,0.40
2023-10-08T04:20:37.785Z,0.40
2023-10-08T04:23:14.620Z,0.60
2023-10-08T04:25:44.359Z,0.25
2023-10-08T04:28:15.566Z,0.40
2023-10-08T04:30:48.691Z,0.63
2023-10-08T04:33:17.511Z,0.70
2023-10-08T04:35:52.547Z,0.50
2023-10-08T04:38:24.249Z,0.50
2023-10-08T04:40:53.448Z,0.80
2023-10-08T04:43:26.780Z,0.40
2023-10-08T04:45:58.337Z,0.80
2023-10-08T04:48:28.565Z,0.90
2023-10-08T04:51:00.385Z,0.68
2023-10-08T04:53:33.896Z,0.95
2023-10-08T04:56:07.335Z,0.98
2023-10-08T04:58:38.101Z,0.90
2023-10-08T05:01:22.138Z,1.05
2023-10-08T05:04:25.777Z,0.63
2023-10-08T05:10:12.442Z,1.00
2023-10-08T05:12:47.782Z,1.15
2023-10-08T05:15:34.487Z,0.80
2023-10-08T05:21:16.386Z,1.08
2023-10-08T05:24:10.554Z,1.48
2023-10-08T05:27:00.659Z,1.02
2023-10-08T05:29:53.306Z,1.00
2023-10-08T05:32:45.605Z,1.10
2023-10-08T05:35:31.296Z,1.02
2023-10-08T05:38:14.680Z,1.58
2023-10-08T05:41:01.420Z,1.05
2023-10-08T05:43:57.037Z,2.58
2023-10-08T05:46:43.135Z,2.83
2023-10-08T05:49:29.038Z,1.42
2023-10-08T05:52:26.159Z,1.80
2023-10-08T05:55:16.983Z,0.88
2023-10-08T05:57:53.130Z,0.80
2023-10-08T06:00:47.902Z,0.73
2023-10-08T06:03:44.593Z,0.65
2023-10-08T06:06:37.068Z,0.90
2023-10-08T06:09:21.150Z,1.20
2023-10-08T06:12:09.401Z,0.80
2023-10-08T06:14:55.705Z,0.60
2023-10-08T06:17:58.812Z,0.82
2023-10-08T06:20:27.844Z,0.75
2023-10-08T06:23:02.778Z,0.90
2023-10-08T06:25:31.643Z,0.90
2023-10-08T06:28:00.298Z,0.90
2023-10-08T06:30:31.256Z,0.85
2023-10-08T06:33:02.304Z,0.80
2023-10-08T06:35:30.869Z,0.77
2023-10-08T06:38:02.542Z,1.00
2023-10-08T06:40:50.725Z,0.90
2023-10-08T06:43:23.218Z,0.70
2023-10-08T06:45:54.353Z,0.80
2023-10-08T06:48:25.446Z,0.73
2023-10-08T06:50:58.968Z,0.98
2023-10-08T06:53:31.068Z,0.65
2023-10-08T06:56:05.013Z,0.95
2023-10-08T06:58:34.430Z,0.90
2023-10-08T07:01:06.097Z,0.80
2023-10-08T07:03:36.677Z,1.10
2023-10-08T07:06:17.684Z,0.90
2023-10-08T07:08:47.888Z,1.40
2023-10-08T07:11:19.283Z,0.90
2023-10-08T07:13:48.079Z,1.48
2023-10-08T07:16:18.787Z,0.95
2023-10-08T07:18:52.887Z,1.00
2023-10-08T07:21:29.755Z,1.02
2023-10-08T07:23:59.151Z,0.90
2023-10-08T07:26:37.493Z,0.98
2023-10-08T07:29:09.926Z,0.88
2023-10-08T07:31:42.660Z,1.05
2023-10-08T07:34:19.409Z,1.67
2023-10-08T07:36:50.505Z,1.38
2023-10-08T07:39:27.171Z,1.50
2023-10-08T07:41:56.656Z,1.48
2023-10-08T07:44:26.485Z,1.33
2023-10-08T07:46:58.927Z,1.33
2023-10-08T07:49:31.088Z,1.20
2023-10-08T07:52:00.299Z,1.70
2023-10-08T07:54:33.029Z,1.52
2023-10-08T07:57:10.003Z,1.52
2023-10-08T07:59:40.046Z,1.30
2023-10-08T08:02:11.126Z,1.85
2023-10-08T08:04:46.549Z,1.40
2023-10-08T08:07:17.542Z,1.55
2023-10-08T08:09:52.221Z,1.23
2023-10-08T08:12:24.980Z,1.65
2023-10-08T08:14:54.174Z,1.70
2023-10-08T08:17:23.812Z,1.35
2023-10-08T08:19:54.763Z,2.92
2023-10-08T08:22:32.533Z,2.10
2023-10-08T08:25:07.628Z,1.98
2023-10-08T08:27:39.813Z,1.77
2023-10-08T08:30:17.077Z,2.25
2023-10-08T08:32:52.712Z,4.15
2023-10-08T08:35:24.115Z,2.45
2023-10-08T08:37:52.451Z,0.95
2023-10-08T08:40:22.911Z,1.63
2023-10-08T08:42:54.068Z,1.27
2023-10-08T08:45:23.471Z,1.10
2023-10-08T08:47:53.048Z,1.27
2023-10-08T08:50:26.728Z,1.80
2023-10-08T08:52:55.141Z,1.42
2023-10-08T08:55:26.590Z,1.52
2023-10-08T08:57:56.776Z,2.03
2023-10-08T09:00:29.732Z,1.70
2023-10-08T09:02:58.580Z,5.25
2023-10-08T09:05:34.911Z,1.60
2023-10-08T09:08:06.191Z,1.35
2023-10-08T09:10:39.386Z,0.88
2023-10-08T09:13:10.636Z,1.13
2023-10-08T09:15:40.617Z,0.90
2023-10-08T09:18:10.490Z,1.10
2023-10-08T09:20:44.441Z,0.80
2023-10-08T09:23:14.557Z,1.10
2023-10-08T09:25:44.869Z,1.55
2023-10-08T09:28:14.800Z,1.05
2023-10-08T09:30:47.301Z,1.23
2023-10-08T09:33:17.015Z,1.83
2023-10-08T09:35:48.595Z,1.17
2023-10-08T09:38:24.339Z,0.77
2023-10-08T09:40:55.389Z,0.80
2023-10-08T09:43:25.251Z,1.20
2023-10-08T09:45:57.481Z,0.75
2023-10-08T09:48:28.682Z,0.90
2023-10-08T09:51:01.775Z,1.17
2023-10-08T09:53:43.344Z,0.90
2023-10-08T09:56:16.684Z,1.02
2023-10-08T09:58:46.988Z,0.80
2023-10-08T10:01:15.790Z,1.00
2023-10-08T10:03:44.457Z,1.25
2023-10-08T10:06:19.720Z,1.20
2023-10-08T10:08:50.458Z,1.00
2023-10-08T10:11:18.913Z,1.27
2023-10-08T10:14:01.840Z,1.30
2023-10-08T10:16:30.546Z,1.33
2023-10-08T10:19:00.602Z,0.80
2023-10-08T10:21:33.951Z,1.25
2023-10-08T10:24:07.105Z,0.77
2023-10-08T10:26:37.149Z,0.70
2023-10-08T10:29:27.716Z,1.42
2023-10-08T10:31:58.377Z,1.17
2023-10-08T10:34:29.396Z,0.32
2023-10-08T10:37:04.434Z,0.75
2023-10-08T10:39:40.954Z,0.88
2023-10-08T10:42:21.845Z,0.82
2023-10-08T10:44:51.707Z,0.73
2023-10-08T10:47:29.731Z,0.60
2023-10-08T10:50:19.886Z,0.52
2023-10-08T10:52:54.592Z,0.80
2023-10-08T10:55:23.956Z,0.82
2023-10-08T10:57:58.560Z,0.50
2023-10-08T11:00:44.549Z,1.33
2023-10-08T11:03:18.548Z,0.90
2023-10-08T11:05:52.389Z,0.60
2023-10-08T11:08:24.527Z,1.02
2023-10-08T11:10:59.709Z,1.10
2023-10-08T11:13:38.479Z,0.82
2023-10-08T11:16:08.801Z,1.33
2023-10-08T11:18:39.258Z,1.08
2023-10-08T11:21:17.209Z,1.10
2023-10-08T11:23:53.981Z,0.80
2023-10-08T11:26:33.462Z,0.60
2023-10-08T11:29:04.266Z,1.08
2023-10-08T11:31:35.146Z,0.98
2023-10-08T11:34:10.528Z,0.50
2023-10-08T11:36:50.508Z,0.90
2023-10-08T11:39:23.820Z,0.50
2023-10-08T11:42:04.072Z,0.82
2023-10-08T11:44:36.997Z,0.70
2023-10-08T11:47:13.585Z,0.80
2023-10-08T11:49:49.145Z,0.65
2023-10-08T11:52:17.992Z,0.70
2023-10-08T11:54:49.677Z,0.50
2023-10-08T11:57:24.161Z,0.80
2023-10-08T11:59:56.382Z,1.08
2023-10-08T12:02:28.565Z,0.55
2023-10-08T12:04:58.971Z,0.60
2023-10-08T12:07:29.195Z,0.80
2023-10-08T12:09:59.194Z,0.52
2023-10-08T12:12:28.927Z,1.17
2023-10-08T12:14:57.458Z,1.20
2023-10-08T12:17:38.960Z,0.90
2023-10-08T12:20:23.947Z,0.90
2023-10-08T12:22:53.505Z,0.80
2023-10-08T12:25:23.969Z,0.80
2023-10-08T12:27:52.318Z,1.00
2023-10-08T12:30:31.559Z,0.90
2023-10-08T12:33:01.575Z,1.25
2023-10-08T12:35:30.890Z,0.60
2023-10-08T12:37:59.339Z,1.00
2023-10-08T12:40:43.250Z,0.65
2023-10-08T12:43:12.293Z,0.52
2023-10-08T12:45:40.789Z,0.90
2023-10-08T12:48:09.738Z,0.50
2023-10-08T12:50:44.665Z,0.85
2023-10-08T12:53:13.579Z,0.90
2023-10-08T12:55:43.390Z,0.80
2023-10-08T12:58:11.948Z,0.82
2023-10-08T13:00:42.533Z,0.60
2023-10-08T13:03:16.788Z,0.80
2023-10-08T13:05:46.544Z,0.70
2023-10-08T13:08:15.307Z,0.80
2023-10-08T13:10:45.528Z,0.80
2023-10-08T13:13:14.718Z,1.15
2023-10-08T13:15:44.528Z,0.73
2023-10-08T13:18:13.111Z,0.73
2023-10-08T13:20:46.115Z,0.88
2023-10-08T13:23:14.657Z,1.08
2023-10-08T13:25:47.755Z,0.77
2023-10-08T13:28:16.169Z,0.60
2023-10-08T13:30:44.706Z,0.80
2023-10-08T13:33:14.404Z,0.52
2023-10-08T13:35:44.791Z,0.85
2023-10-08T13:38:15.003Z,0.68
2023-10-08T13:41:03.027Z,1.02
2023-10-08T13:43:37.534Z,0.80
2023-10-08T13:46:09.610Z,0.65
2023-10-08T13:48:38.502Z,0.57
2023-10-08T13:51:14.696Z,0.65
2023-10-08T13:53:46.273Z,1.10
2023-10-08T13:56:14.873Z,1.10
2023-10-08T13:58:47.386Z,0.75
2023-10-08T14:01:22.208Z,0.75
2023-10-08T14:03:54.540Z,0.82
2023-10-08T14:06:23.366Z,0.80
2023-10-08T14:08:53.638Z,0.95
2023-10-08T14:11:24.891Z,0.73
2023-10-08T14:13:55.137Z,0.57
2023-10-08T14:16:24.673Z,0.60
2023-10-08T14:18:56.023Z,0.75
2023-10-08T14:21:25.996Z,0.88
2023-10-08T14:23:54.491Z,0.70
2023-10-08T14:26:36.007Z,0.98
2023-10-08T14:29:11.962Z,1.20
2023-10-08T14:31:40.924Z,0.63
2023-10-08T14:34:20.300Z,1.00
2023-10-08T14:37:06.909Z,0.68
2023-10-08T14:39:53.761Z,0.70
2023-10-08T14:42:40.380Z,1.00
2023-10-08T14:45:14.642Z,0.90
2023-10-08T14:47:43.367Z,1.17
2023-10-08T14:50:17.393Z,0.80
2023-10-08T14:52:47.826Z,0.65
2023-10-08T14:55:17.140Z,0.75
2023-10-08T14:57:47.057Z,0.95
2023-10-08T15:00:17.280Z,0.90
2023-10-08T15:02:45.951Z,0.90
2023-10-08T15:05:15.372Z,1.00
2023-10-08T15:07:43.796Z,0.60
2023-10-08T15:10:14.219Z,0.70
2023-10-08T15:12:42.594Z,0.90
2023-10-08T15:15:15.056Z,1.02
2023-10-08T15:17:47.464Z,1.13
2023-10-08T15:20:18.093Z,1.35
2023-10-08T15:22:47.891Z,1.40
2023-10-08T15:25:18.795Z,1.10
2023-10-08T15:27:49.190Z,1.40
2023-10-08T15:30:20.615Z,1.63
2023-10-08T15:32:55.492Z,1.40
2023-10-08T15:35:25.320Z,0.98
2023-10-08T15:37:55.092Z,1.35
2023-10-08T15:40:23.990Z,1.00
2023-10-08T15:42:54.990Z,3.90
2023-10-08T15:45:25.232Z,4.80
2023-10-08T15:47:56.160Z,10.38
2023-10-08T15:50:26.556Z,3.58
2023-10-08T15:52:57.181Z,5.45
2023-10-08T15:55:27.047Z,3.65
2023-10-08T15:57:58.224Z,3.67
2023-10-08T16:00:29.571Z,2.65
2023-10-08T16:02:59.442Z,2.45
2023-10-08T16:05:28.015Z,2.30
2023-10-08T16:07:59.869Z,2.42
2023-10-08T16:10:29.012Z,1.42
2023-10-08T16:12:57.957Z,1.20
2023-10-08T16:15:26.775Z,1.52
2023-10-08T16:17:57.488Z,1.05
2023-10-08T16:20:27.753Z,1.17
2023-10-08T16:22:56.183Z,0.90
2023-10-08T16:25:24.770Z,0.90
2023-10-08T16:27:54.551Z,1.08
2023-10-08T16:30:28.678Z,1.60
2023-10-08T16:33:00.564Z,1.23
2023-10-08T16:35:31.959Z,1.23
2023-10-08T16:38:00.382Z,1.83
2023-10-08T16:40:28.943Z,2.55
2023-10-08T16:42:57.415Z,2.30
2023-10-08T16:45:26.255Z,2.75
2023-10-08T16:47:54.793Z,2.35
2023-10-08T16:50:23.355Z,4.20
2023-10-08T16:52:55.708Z,3.65
2023-10-08T16:55:26.321Z,3.40
2023-10-08T16:57:55.480Z,4.18
2023-10-08T17:00:24.353Z,2.72
2023-10-08T17:02:53.220Z,2.33
2023-10-08T17:05:21.763Z,1.67
2023-10-08T17:07:54.439Z,1.27
2023-10-08T17:10:22.947Z,1.17
2023-10-08T17:12:52.919Z,1.80
2023-10-08T17:15:26.726Z,1.70
2023-10-08T17:17:55.282Z,3.58
2023-10-08T17:20:24.854Z,2.30
2023-10-08T17:22:54.623Z,1.75
2023-10-08T17:25:23.090Z,1.42
2023-10-08T17:27:51.471Z,1.60
2023-10-08T17:30:23.333Z,1.80
2023-10-08T17:32:53.294Z,3.33
2023-10-08T17:35:22.267Z,3.45
2023-10-08T17:37:53.559Z,2.60
2023-10-08T17:40:28.756Z,3.90
2023-10-08T17:42:58.058Z,3.17
2023-10-08T17:45:35.647Z,1.70
2023-10-08T17:48:06.509Z,1.40
2023-10-08T17:50:37.532Z,2.65
2023-10-08T17:53:07.302Z,4.10
2023-10-08T17:55:37.861Z,2.47
2023-10-08T17:58:10.529Z,3.60
2023-10-08T18:00:42.227Z,5.72
2023-10-08T18:03:12.201Z,3.95
2023-10-08T18:05:42.733Z,3.35
2023-10-08T18:08:12.370Z,5.38
2023-10-08T18:10:42.402Z,4.22
2023-10-08T18:13:12.581Z,4.80
2023-10-08T18:15:40.913Z,9.70
2023-10-08T18:18:13.561Z,16.20
2023-10-08T18:20:47.738Z,8.20
2023-10-08T18:23:17.392Z,3.35
2023-10-08T18:25:48.064Z,2.00
2023-10-08T18:28:16.461Z,1.65
2023-10-08T18:30:45.597Z,2.22
2023-10-08T18:33:14.595Z,27.38
2023-10-08T18:35:43.030Z,19.45
2023-10-08T18:38:11.510Z,8.98
2023-10-08T18:40:40.039Z,2.97
2023-10-08T18:43:10.358Z,3.60
2023-10-08T18:45:42.603Z,2.20
2023-10-08T18:48:11.154Z,12.60
2023-10-08T18:50:39.592Z,7.50
2023-10-08T18:53:08.710Z,7.72
2023-10-08T18:55:52.658Z,11.73
2023-10-08T18:58:23.653Z,12.48
2023-10-08T19:00:52.446Z,10.80
2023-10-08T19:03:21.217Z,8.57
2023-10-08T19:05:49.789Z,8.85
2023-10-08T19:08:18.217Z,5.85
2023-10-08T19:10:47.109Z,5.63
2023-10-08T19:13:15.653Z,2.83
2023-10-08T19:15:47.905Z,3.42
2023-10-08T19:18:16.441Z,4.07
2023-10-08T19:20:45.833Z,3.92
2023-10-08T19:23:14.575Z,4.90
2023-10-08T19:25:48.668Z,4.38
2023-10-08T19:28:21.106Z,5.22
2023-10-08T19:30:52.314Z,10.10
2023-10-08T19:33:21.038Z,11.00
2023-10-08T19:35:50.586Z,9.85
2023-10-08T19:38:19.009Z,8.93
2023-10-08T19:40:48.610Z,8.80
2023-10-08T19:43:18.103Z,8.00
2023-10-08T19:45:47.990Z,5.80
2023-10-08T19:48:17.977Z,5.53
2023-10-08T19:50:47.837Z,4.55
2023-10-08T19:53:16.994Z,3.80
2023-10-08T19:55:48.125Z,3.67
2023-10-08T19:58:17.669Z,2.63
2023-10-08T20:00:46.174Z,3.40
2023-10-08T20:03:14.821Z,4.43
2023-10-08T20:05:48.540Z,6.07
2023-10-08T20:08:17.229Z,4.50
2023-10-08T20:10:45.913Z,7.30
2023-10-08T20:13:16.538Z,19.80
2023-10-08T20:15:48.556Z,24.50
2023-10-08T20:18:17.263Z,17.95
2023-10-08T20:20:48.438Z,16.60
2023-10-08T20:23:18.769Z,12.40
2023-10-08T20:25:52.425Z,15.82
2023-10-08T20:28:26.182Z,22.83
2023-10-08T20:30:56.084Z,19.33
2023-10-08T20:33:25.053Z,11.45
2023-10-08T20:35:54.917Z,15.80
2023-10-08T20:38:24.802Z,15.98
2023-10-08T20:40:53.263Z,16.73
2023-10-08T20:43:22.725Z,13.82
2023-10-08T20:45:51.751Z,12.98
2023-10-08T20:48:20.463Z,12.55
2023-10-08T20:50:48.856Z,6.30
2023-10-08T20:53:18.717Z,6.75
2023-10-08T20:55:47.518Z,6.43
2023-10-08T20:58:18.911Z,5.47
2023-10-08T21:00:48.205Z,5.13
2023-10-08T21:03:17.790Z,7.97
2023-10-08T21:05:48.175Z,8.35
2023-10-08T21:08:18.323Z,10.52
2023-10-08T21:11:00.749Z,9.80
2023-10-08T21:13:31.382Z,11.70
2023-10-08T21:16:01.628Z,9.20
2023-10-08T21:18:30.977Z,9.50
2023-10-08T21:20:59.934Z,4.53
2023-10-08T21:23:30.661Z,6.28
2023-10-08T21:25:58.990Z,4.05
2023-10-08T21:28:27.342Z,4.78
2023-10-08T21:30:55.891Z,4.90
2023-10-08T21:33:27.024Z,5.30
2023-10-08T21:35:55.652Z,5.30
2023-10-08T21:38:24.669Z,3.88
2023-10-08T21:41:01.864Z,6.68
2023-10-08T21:43:30.845Z,4.20
2023-10-08T21:45:59.401Z,5.50
2023-10-08T21:48:29.457Z,6.25
2023-10-08T21:50:58.001Z,6.20
2023-10-08T21:53:27.256Z,4.35
2023-10-08T21:55:56.408Z,3.55
2023-10-08T21:58:26.223Z,4.50
2023-10-08T22:01:10.402Z,4.05
2023-10-08T22:03:41.923Z,4.88
2023-10-08T22:06:10.889Z,4.95
2023-10-08T22:08:39.867Z,5.20
2023-10-08T22:11:08.854Z,4.40
2023-10-08T22:13:39.861Z,3.45
2023-10-08T22:16:18.534Z,3.05
2023-10-08T22:18:52.792Z,3.00
2023-10-08T22:21:25.508Z,3.20
2023-10-08T22:23:54.817Z,2.63
2023-10-08T22:26:25.288Z,2.63
2023-10-08T22:28:58.635Z,2.60
2023-10-08T22:31:29.313Z,2.55
2023-10-08T22:34:07.696Z,3.55
2023-10-08T22:36:48.390Z,2.58
2023-10-08T22:39:21.772Z,3.25
2023-10-08T22:41:56.807Z,2.88
2023-10-08T22:44:27.485Z,2.90
2023-10-08T22:47:11.201Z,2.78
2023-10-08T22:49:40.206Z,2.67
2023-10-08T22:52:10.167Z,2.92
2023-10-08T22:54:39.286Z,3.17
2023-10-08T22:57:07.654Z,2.80
2023-10-08T22:59:40.749Z,1.83
2023-10-08T23:02:12.112Z,1.75
2023-10-08T23:04:42.028Z,1.90
2023-10-08T23:07:11.399Z,2.35
2023-10-08T23:09:41.109Z,2.97
2023-10-08T23:12:10.913Z,2.97
2023-10-08T23:14:41.098Z,3.40
2023-10-08T23:17:13.134Z,3.42
2023-10-08T23:19:41.854Z,2.70
2023-10-08T23:22:11.624Z,2.60
2023-10-08T23:24:40.109Z,2.13
2023-10-08T23:27:10.082Z,2.75
2023-10-08T23:29:40.292Z,1.90
2023-10-08T23:32:09.704Z,2.20
2023-10-08T23:34:38.948Z,2.63
2023-10-08T23:37:22.941Z,2.50
2023-10-08T23:39:55.699Z,2.50
2023-10-08T23:42:33.083Z,2.25
2023-10-08T23:45:06.897Z,2.10
2023-10-08T23:47:38.074Z,2.40
2023-10-08T23:50:12.548Z,3.08
2023-10-08T23:52:40.892Z,2.30
2023-10-08T23:55:24.696Z,2.67
2023-10-08T23:58:07.580Z,2.10
